createdAt,value
2023-03-18T00:01:22.392Z,98089.31
2023-03-18T00:03:52.481Z,98092.91
2023-03-18T00:06:22.109Z,98084.97
2023-03-18T00:08:52.520Z,98086.84
2023-03-18T00:11:23.127Z,98093.84
2023-03-18T00:13:50.323Z,98078.94
2023-03-18T00:16:16.905Z,98081.59
2023-03-18T00:18:43.870Z,98086.78
2023-03-18T00:21:10.986Z,98084.31
2023-03-18T00:23:38.627Z,98092.38
2023-03-18T00:26:09.717Z,98086.19
2023-03-18T00:28:37.441Z,98091.59
2023-03-18T00:31:11.799Z,98093.38
2023-03-18T00:33:45.973Z,98089.78
2023-03-18T00:36:14.071Z,98084.47
2023-03-18T00:38:42.359Z,98097.78
2023-03-18T00:41:12.246Z,98100.53
2023-03-18T00:43:49.638Z,98100.53
2023-03-18T00:46:18.050Z,98091.63
2023-03-18T00:48:51.000Z,98098.69
2023-03-18T00:51:18.901Z,98104.91
2023-03-18T00:53:48.379Z,98107.59
2023-03-18T00:56:16.386Z,98103.31
2023-03-18T00:58:46.061Z,98102.59
2023-03-18T01:01:17.804Z,98100.72
2023-03-18T01:03:44.820Z,98103.50
2023-03-18T01:06:17.483Z,98108.09
2023-03-18T01:08:50.063Z,98102.91
2023-03-18T01:11:17.358Z,98106.34
2023-03-18T01:13:46.074Z,98111.75
2023-03-18T01:16:13.317Z,98105.63
2023-03-18T01:18:47.441Z,98105.63
2023-03-18T01:21:18.111Z,98110.06
2023-03-18T01:23:44.678Z,98107.47
2023-03-18T01:26:14.375Z,98109.19
2023-03-18T01:28:41.317Z,98104.69
2023-03-18T01:31:10.730Z,98103.84
2023-03-18T01:33:37.260Z,98103.94
2023-03-18T01:36:11.005Z,98108.41
2023-03-18T01:38:37.818Z,98113.81
2023-03-18T01:41:05.079Z,98116.44
2023-03-18T01:43:38.698Z,98112.88
2023-03-18T01:46:23.919Z,98113.81
2023-03-18T01:48:52.041Z,98116.47
2023-03-18T01:51:20.278Z,98124.47
2023-03-18T01:53:50.032Z,98121.81
2023-03-18T01:56:18.492Z,98123.50
2023-03-18T01:58:52.503Z,98125.28
2023-03-18T02:01:26.279Z,98130.63
2023-03-18T02:03:54.102Z,98126.22
2023-03-18T02:06:29.408Z,98126.22
2023-03-18T02:09:02.246Z,98131.53
2023-03-18T02:11:32.270Z,98135.91
2023-03-18T02:14:03.138Z,98139.50
2023-03-18T02:16:44.348Z,98127.09
2023-03-18T02:19:30.083Z,98138.66
2023-03-18T02:22:09.676Z,98133.28
2023-03-18T02:25:17.356Z,98147.44
2023-03-18T02:27:47.753Z,98136.91
2023-03-18T02:30:21.005Z,98144.06
2023-03-18T02:32:53.095Z,98144.06
2023-03-18T02:35:20.657Z,98154.63
2023-03-18T02:37:50.303Z,98152.06
2023-03-18T02:40:24.616Z,98153.97
2023-03-18T02:42:51.863Z,98157.53
2023-03-18T02:45:35.896Z,98154.00
2023-03-18T02:48:08.388Z,98153.22
2023-03-18T02:50:34.847Z,98161.19
2023-03-18T02:53:05.530Z,98163.81
2023-03-18T02:55:31.983Z,98165.63
2023-03-18T02:57:58.984Z,98159.44
2023-03-18T03:00:27.978Z,98156.84
2023-03-18T03:02:54.879Z,98154.22
2023-03-18T03:05:24.768Z,98149.72
2023-03-18T03:07:51.792Z,98150.34
2023-03-18T03:10:18.876Z,98152.94
2023-03-18T03:12:45.424Z,98152.97
2023-03-18T03:15:13.498Z,98152.97
2023-03-18T03:17:44.535Z,98161.84
2023-03-18T03:20:14.255Z,98163.66
2023-03-18T03:22:42.052Z,98162.81
2023-03-18T03:25:16.998Z,98163.72
2023-03-18T03:27:43.716Z,98167.34
2023-03-18T03:30:12.154Z,98169.13
2023-03-18T03:32:39.810Z,98165.59
2023-03-18T03:35:12.008Z,98167.38
2023-03-18T03:37:38.476Z,98169.25
2023-03-18T03:40:06.406Z,98159.41
2023-03-18T03:42:32.924Z,98156.00
2023-03-18T03:44:59.860Z,98154.31
2023-03-18T03:47:26.324Z,98157.19
2023-03-18T03:49:53.363Z,98160.81
2023-03-18T03:52:20.010Z,98165.28
2023-03-18T03:54:46.575Z,98169.75
2023-03-18T03:57:13.675Z,98173.31
2023-03-18T03:59:40.490Z,98174.13
2023-03-18T04:02:07.528Z,98171.47
2023-03-18T04:04:34.027Z,98173.31
2023-03-18T04:07:00.782Z,98177.69
2023-03-18T04:09:27.313Z,98178.59
2023-03-18T04:11:53.752Z,98176.81
2023-03-18T04:14:20.312Z,98180.44
2023-03-18T04:16:46.778Z,98188.31
2023-03-18T04:19:13.338Z,98192.75
2023-03-18T04:21:39.775Z,98194.44
2023-03-18T04:24:06.696Z,98192.69
2023-03-18T04:26:33.197Z,98200.69
2023-03-18T04:28:59.686Z,98197.25
2023-03-18T04:31:27.090Z,98196.44
2023-03-18T04:33:53.605Z,98189.44
2023-03-18T04:36:20.115Z,98188.56
2023-03-18T04:38:46.567Z,98174.50
2023-03-18T04:41:13.072Z,98187.69
2023-03-18T04:43:39.510Z,98184.06
2023-03-18T04:46:06.032Z,98181.31
2023-03-18T04:48:32.476Z,98194.53
2023-03-18T04:50:59.784Z,98185.69
2023-03-18T04:53:26.265Z,98193.63
2023-03-18T04:55:52.938Z,98183.00
2023-03-18T04:58:19.474Z,98190.03
2023-03-18T05:00:46.409Z,98190.06
2023-03-18T05:03:12.926Z,98194.44
2023-03-18T05:05:39.898Z,98195.34
2023-03-18T05:08:07.651Z,98198.81
2023-03-18T05:10:35.198Z,98184.63
2023-03-18T05:13:02.016Z,98179.28
2023-03-18T05:15:28.477Z,98181.97
2023-03-18T05:17:54.923Z,98173.13
2023-03-18T05:20:21.510Z,98177.50
2023-03-18T05:22:48.018Z,98176.59
2023-03-18T05:25:14.550Z,98186.22
2023-03-18T05:27:41.879Z,98180.91
2023-03-18T05:30:11.247Z,98181.75
2023-03-18T05:32:38.721Z,98177.28
2023-03-18T05:35:06.810Z,98179.94
2023-03-18T05:37:33.408Z,98181.72
2023-03-18T05:40:00.127Z,98180.00
2023-03-18T05:42:27.119Z,98176.47
2023-03-18T05:44:54.645Z,98171.13
2023-03-18T05:47:21.481Z,98175.53
2023-03-18T05:49:48.293Z,98178.19
2023-03-18T05:52:17.426Z,98171.19
2023-03-18T05:54:44.697Z,98186.22
2023-03-18T05:57:11.455Z,98178.25
2023-03-18T05:59:38.207Z,98175.59
2023-03-18T06:02:07.448Z,98185.31
2023-03-18T06:04:33.960Z,98177.34
2023-03-18T06:07:01.193Z,98186.16
2023-03-18T06:09:27.713Z,98187.06
2023-03-18T06:11:54.400Z,98193.34
2023-03-18T06:14:21.050Z,98193.38
2023-03-18T06:16:47.663Z,98195.09
2023-03-18T06:19:14.488Z,98190.69
2023-03-18T06:21:41.091Z,98197.72
2023-03-18T06:24:08.174Z,98198.50
2023-03-18T06:26:35.170Z,98210.84
2023-03-18T06:29:01.773Z,98204.69
2023-03-18T06:31:28.349Z,98204.56
2023-03-18T06:33:54.859Z,98205.47
2023-03-18T06:36:21.648Z,98209.81
2023-03-18T06:38:48.394Z,98200.06
2023-03-18T06:41:16.242Z,98208.97
2023-03-18T06:43:43.299Z,98203.69
2023-03-18T06:46:10.662Z,98202.81
2023-03-18T06:48:40.244Z,98207.19
2023-03-18T06:51:07.765Z,98214.22
2023-03-18T06:53:36.456Z,98223.94
2023-03-18T06:56:09.937Z,98214.09
2023-03-18T06:58:36.402Z,98219.34
2023-03-18T07:01:03.025Z,98219.31
2023-03-18T07:03:29.598Z,98221.91
2023-03-18T07:05:56.136Z,98220.91
2023-03-18T07:08:23.296Z,98235.03
2023-03-18T07:10:52.868Z,98244.66
2023-03-18T07:13:19.439Z,98233.03
2023-03-18T07:15:46.549Z,98232.91
2023-03-18T07:18:14.207Z,98231.91
2023-03-18T07:20:41.843Z,98249.56
2023-03-18T07:23:11.459Z,98246.81
2023-03-18T07:25:37.972Z,98246.69
2023-03-18T07:28:05.762Z,98255.50
2023-03-18T07:30:33.242Z,98259.06
2023-03-18T07:33:00.296Z,98257.25
2023-03-18T07:35:28.171Z,98259.75
2023-03-18T07:37:54.690Z,98255.31
2023-03-18T07:40:21.148Z,98266.84
2023-03-18T07:42:48.529Z,98264.16
2023-03-18T07:45:15.058Z,98270.25
2023-03-18T07:47:41.706Z,98272.81
2023-03-18T07:50:09.057Z,98278.94
2023-03-18T07:52:35.785Z,98280.66
2023-03-18T07:55:02.276Z,98285.94
2023-03-18T07:57:28.760Z,98281.47
2023-03-18T07:59:55.518Z,98302.66
2023-03-18T08:02:23.550Z,98302.59
2023-03-18T08:04:50.238Z,98306.09
2023-03-18T08:07:17.204Z,98310.34
2023-03-18T08:09:43.728Z,98301.28
2023-03-18T08:12:10.774Z,98316.09
2023-03-18T08:14:37.382Z,98302.53
2023-03-18T08:17:03.900Z,98319.44
2023-03-18T08:19:30.535Z,98322.94
2023-03-18T08:21:57.442Z,98333.25
2023-03-18T08:24:24.603Z,98328.66
2023-03-18T08:26:51.303Z,98340.13
2023-03-18T08:29:18.056Z,98331.25
2023-03-18T08:31:47.114Z,98339.09
2023-03-18T08:34:16.913Z,98346.03
2023-03-18T08:36:43.588Z,98349.31
2023-03-18T08:39:12.777Z,98344.63
2023-03-18T08:41:40.156Z,98353.28
2023-03-18T08:44:08.449Z,98351.53
2023-03-18T08:46:34.941Z,98347.00
2023-03-18T08:49:04.774Z,98348.50
2023-03-18T08:51:32.577Z,98346.56
2023-03-18T08:53:59.343Z,98343.63
2023-03-18T08:56:26.043Z,98347.66
2023-03-18T08:58:53.146Z,98348.47
2023-03-18T09:01:21.933Z,98342.28
2023-03-18T09:03:49.830Z,98349.34
2023-03-18T09:06:16.839Z,98361.91
2023-03-18T09:08:44.771Z,98349.25
2023-03-18T09:11:11.432Z,98349.78
2023-03-18T09:13:44.214Z,98355.69
2023-03-18T09:16:10.801Z,98356.34
2023-03-18T09:18:37.326Z,98360.78
2023-03-18T09:21:04.915Z,98365.09
2023-03-18T09:23:32.346Z,98367.56
2023-03-18T09:25:59.859Z,98362.84
2023-03-18T09:28:26.954Z,98355.25
2023-03-18T09:30:54.096Z,98364.53
2023-03-18T09:33:20.947Z,98360.72
2023-03-18T09:35:47.640Z,98366.44
2023-03-18T09:38:23.115Z,98370.81
2023-03-18T09:40:58.605Z,98374.19
2023-03-18T09:43:44.736Z,98381.38
2023-03-18T09:46:53.283Z,98382.03
2023-03-18T09:49:57.611Z,98385.72
2023-03-18T09:52:36.565Z,98381.28
2023-03-18T09:55:29.626Z,98384.97
2023-03-18T09:58:01.613Z,98389.44
2023-03-18T10:00:34.491Z,98391.41
2023-03-18T10:03:12.603Z,98396.63
2023-03-18T10:06:00.112Z,98392.09
2023-03-18T10:08:49.073Z,98395.41
2023-03-18T10:11:18.620Z,98394.94
2023-03-18T10:14:08.696Z,98391.19
2023-03-18T10:16:48.771Z,98392.84
2023-03-18T10:19:15.603Z,98399.00
2023-03-18T10:22:10.633Z,98392.47
2023-03-18T10:24:54.955Z,98396.19
2023-03-18T10:27:42.715Z,98389.66
2023-03-18T10:30:39.717Z,98395.19
2023-03-18T10:33:45.036Z,98398.97
2023-03-18T10:36:49.314Z,98406.56
2023-03-18T10:39:21.002Z,98404.38
2023-03-18T10:41:52.289Z,98406.91
2023-03-18T10:44:27.784Z,98411.84
2023-03-18T10:47:20.041Z,98416.66
2023-03-18T10:50:18.506Z,98412.63
2023-03-18T10:52:56.928Z,98415.22
2023-03-18T10:55:31.884Z,98413.41
2023-03-18T10:57:59.860Z,98417.19
2023-03-18T11:00:35.721Z,98415.25
2023-03-18T11:03:07.140Z,98419.63
2023-03-18T11:05:36.191Z,98417.97
2023-03-18T11:08:05.252Z,98420.03
2023-03-18T11:10:51.967Z,98418.72
2023-03-18T11:13:20.626Z,98419.63
2023-03-18T11:15:51.387Z,98407.03
2023-03-18T11:18:23.749Z,98410.00
2023-03-18T11:21:03.662Z,98408.81
2023-03-18T11:24:07.768Z,98412.66
2023-03-18T11:26:48.269Z,98413.81
2023-03-18T11:29:23.935Z,98420.81
2023-03-18T11:32:01.463Z,98420.16
2023-03-18T11:34:30.160Z,98408.09
2023-03-18T11:37:04.499Z,98417.09
2023-03-18T11:39:36.649Z,98419.47
2023-03-18T11:42:16.917Z,98422.75
2023-03-18T11:44:43.447Z,98412.94
2023-03-18T11:47:18.007Z,98410.81
2023-03-18T11:49:44.944Z,98416.50
2023-03-18T11:52:30.898Z,98415.22
2023-03-18T11:55:29.909Z,98411.00
2023-03-18T11:58:03.252Z,98407.47
2023-03-18T12:00:37.484Z,98397.66
2023-03-18T12:03:31.812Z,98405.72
2023-03-18T12:06:10.537Z,98406.63
2023-03-18T12:08:45.137Z,98403.53
2023-03-18T12:11:14.747Z,98401.84
2023-03-18T12:14:10.048Z,98406.91
2023-03-18T12:16:59.117Z,98398.97
2023-03-18T12:19:45.515Z,98402.41
2023-03-18T12:22:28.905Z,98400.66
2023-03-18T12:25:04.761Z,98397.81
2023-03-18T12:28:08.883Z,98392.56
2023-03-18T12:31:06.335Z,98404.63
2023-03-18T12:33:34.029Z,98400.00
2023-03-18T12:36:22.134Z,98402.28
2023-03-18T12:39:05.831Z,98399.47
2023-03-18T12:41:45.455Z,98395.38
2023-03-18T12:44:23.678Z,98393.00
2023-03-18T12:47:11.938Z,98391.19
2023-03-18T12:49:47.937Z,98383.72
2023-03-18T12:52:26.346Z,98390.44
2023-03-18T12:55:21.785Z,98389.81
2023-03-18T12:57:55.090Z,98391.38
2023-03-18T13:00:29.983Z,98391.59
2023-03-18T13:03:00.072Z,98396.28
2023-03-18T13:05:36.733Z,98405.06
2023-03-18T13:08:16.246Z,98404.53
2023-03-18T13:10:47.149Z,98401.88
2023-03-18T13:13:15.061Z,98389.66
2023-03-18T13:15:49.446Z,98393.91
2023-03-18T13:18:22.448Z,98391.81
2023-03-18T13:20:51.870Z,98398.69
2023-03-18T13:23:27.593Z,98392.75
2023-03-18T13:26:15.702Z,98395.41
2023-03-18T13:29:04.605Z,98386.13
2023-03-18T13:31:39.451Z,98382.41
2023-03-18T13:34:43.648Z,98395.22
2023-03-18T13:37:32.849Z,98399.25
2023-03-18T13:40:18.010Z,98390.28
2023-03-18T13:42:47.682Z,98395.75
2023-03-18T13:45:38.165Z,98402.63
2023-03-18T13:48:20.908Z,98397.81
2023-03-18T13:50:50.811Z,98400.06
2023-03-18T13:53:29.787Z,98401.00
2023-03-18T13:55:56.277Z,98402.84
2023-03-18T13:58:34.762Z,98407.31
2023-03-18T14:01:01.207Z,98398.34
2023-03-18T14:03:51.126Z,98396.28
2023-03-18T14:06:36.633Z,98387.53
2023-03-18T14:09:25.256Z,98394.09
2023-03-18T14:11:52.901Z,98377.38
2023-03-18T14:14:57.891Z,98381.78
2023-03-18T14:17:47.403Z,98382.66
2023-03-18T14:20:22.743Z,98382.59
2023-03-18T14:22:54.933Z,98374.47
2023-03-18T14:25:40.946Z,98389.84
2023-03-18T14:28:07.380Z,98388.00
2023-03-18T14:30:37.303Z,98386.44
2023-03-18T14:33:22.914Z,98379.56
2023-03-18T14:35:59.838Z,98382.47
2023-03-18T14:38:36.310Z,98379.06
2023-03-18T14:41:13.981Z,98381.00
2023-03-18T14:43:44.534Z,98381.09
2023-03-18T14:46:22.085Z,98382.16
2023-03-18T14:48:54.108Z,98370.59
2023-03-18T14:51:22.291Z,98376.00
2023-03-18T14:54:20.847Z,98372.34
2023-03-18T14:56:53.703Z,98366.94
2023-03-18T14:59:24.610Z,98368.78
2023-03-18T15:01:53.502Z,98375.88
2023-03-18T15:04:24.920Z,98376.75
2023-03-18T15:06:53.170Z,98371.41
2023-03-18T15:09:27.258Z,98370.59
2023-03-18T15:11:54.417Z,98375.16
2023-03-18T15:14:35.024Z,98372.56
2023-03-18T15:17:12.106Z,98365.47
2023-03-18T15:19:38.582Z,98372.41
2023-03-18T15:22:06.942Z,98374.19
2023-03-18T15:24:33.860Z,98373.38
2023-03-18T15:27:06.921Z,98361.66
2023-03-18T15:29:37.143Z,98366.13
2023-03-18T15:32:18.950Z,98374.03
2023-03-18T15:34:52.865Z,98378.47
2023-03-18T15:37:40.736Z,98369.59
2023-03-18T15:40:26.065Z,98378.72
2023-03-18T15:43:16.793Z,98372.50
2023-03-18T15:45:58.807Z,98376.31
2023-03-18T15:48:30.915Z,98366.84
2023-03-18T15:51:00.626Z,98374.94
2023-03-18T15:53:33.737Z,98363.53
2023-03-18T15:56:13.859Z,98376.97
2023-03-18T15:58:40.420Z,98370.78
2023-03-18T16:01:09.954Z,98365.66
2023-03-18T16:03:43.671Z,98368.31
2023-03-18T16:06:12.803Z,98365.81
2023-03-18T16:08:39.372Z,98366.75
2023-03-18T16:11:06.256Z,98368.75
2023-03-18T16:13:35.089Z,98361.63
2023-03-18T16:16:01.719Z,98367.06
2023-03-18T16:18:28.427Z,98370.75
2023-03-18T16:20:55.161Z,98377.97
2023-03-18T16:23:21.933Z,98369.09
2023-03-18T16:25:52.005Z,98374.44
2023-03-18T16:28:24.889Z,98377.97
2023-03-18T16:30:53.428Z,98369.19
2023-03-18T16:33:21.100Z,98372.69
2023-03-18T16:35:58.565Z,98381.69
2023-03-18T16:38:25.958Z,98382.72
2023-03-18T16:40:57.301Z,98389.84
2023-03-18T16:43:29.157Z,98391.69
2023-03-18T16:46:00.542Z,98388.09
2023-03-18T16:48:27.779Z,98390.72
2023-03-18T16:50:55.902Z,98390.78
2023-03-18T16:53:31.490Z,98391.66
2023-03-18T16:56:18.959Z,98397.06
2023-03-18T16:58:45.500Z,98402.63
2023-03-18T17:01:16.522Z,98391.38
2023-03-18T17:03:44.073Z,98399.41
2023-03-18T17:06:10.882Z,98398.78
2023-03-18T17:08:37.738Z,98403.19
2023-03-18T17:11:04.706Z,98409.16
2023-03-18T17:13:34.565Z,98410.16
2023-03-18T17:16:04.848Z,98409.53
2023-03-18T17:18:31.699Z,98407.97
2023-03-18T17:20:58.220Z,98411.66
2023-03-18T17:23:27.569Z,98415.38
2023-03-18T17:26:00.235Z,98416.47
2023-03-18T17:28:39.178Z,98420.28
2023-03-18T17:31:06.582Z,98423.25
2023-03-18T17:33:36.998Z,98419.09
2023-03-18T17:36:05.340Z,98429.84
2023-03-18T17:38:32.514Z,98425.50
2023-03-18T17:41:00.142Z,98431.94
2023-03-18T17:43:32.453Z,98427.69
2023-03-18T17:46:00.619Z,98425.25
2023-03-18T17:48:31.973Z,98429.91
2023-03-18T17:51:15.507Z,98432.72
2023-03-18T17:53:48.037Z,98433.72
2023-03-18T17:56:17.212Z,98435.50
2023-03-18T17:58:45.925Z,98435.50
2023-03-18T18:01:23.212Z,98438.22
2023-03-18T18:03:53.619Z,98439.34
2023-03-18T18:06:22.495Z,98441.06
2023-03-18T18:08:49.725Z,98437.81
2023-03-18T18:11:19.453Z,98433.50
2023-03-18T18:13:47.362Z,98429.97
2023-03-18T18:16:14.458Z,98434.38
2023-03-18T18:18:41.701Z,98439.78
2023-03-18T18:21:17.433Z,98439.88
2023-03-18T18:23:47.241Z,98438.38
2023-03-18T18:26:16.515Z,98435.09
2023-03-18T18:28:48.616Z,98436.00
2023-03-18T18:31:19.872Z,98436.97
2023-03-18T18:33:49.951Z,98437.88
2023-03-18T18:36:17.962Z,98449.50
2023-03-18T18:38:44.818Z,98449.53
2023-03-18T18:41:11.333Z,98461.00
2023-03-18T18:43:37.817Z,98454.97
2023-03-18T18:46:04.335Z,98456.72
2023-03-18T18:48:34.014Z,98449.75
2023-03-18T18:51:03.475Z,98452.47
2023-03-18T18:53:36.894Z,98454.31
2023-03-18T18:56:26.194Z,98452.44
2023-03-18T18:58:53.216Z,98446.16
2023-03-18T19:01:20.443Z,98454.22
2023-03-18T19:03:48.349Z,98451.56
2023-03-18T19:06:25.561Z,98446.09
2023-03-18T19:08:53.974Z,98456.72
2023-03-18T19:11:20.530Z,98457.59
2023-03-18T19:13:47.715Z,98444.31
2023-03-18T19:16:34.895Z,98443.47
2023-03-18T19:19:03.120Z,98445.22
2023-03-18T19:21:29.555Z,98441.75
2023-03-18T19:23:58.084Z,98444.34
2023-03-18T19:26:24.619Z,98443.50
2023-03-18T19:28:59.363Z,98440.06
2023-03-18T19:31:30.431Z,98446.63
2023-03-18T19:33:59.331Z,98446.91
2023-03-18T19:36:27.987Z,98447.84
2023-03-18T19:38:57.225Z,98443.31
2023-03-18T19:41:23.893Z,98446.66
2023-03-18T19:43:50.778Z,98453.63
2023-03-18T19:46:25.831Z,98450.22
2023-03-18T19:48:52.726Z,98453.78
2023-03-18T19:51:19.230Z,98455.63
2023-03-18T19:53:47.018Z,98455.69
2023-03-18T19:56:28.836Z,98461.84
2023-03-18T19:58:59.163Z,98454.75
2023-03-18T20:01:27.322Z,98461.19
2023-03-18T20:03:58.086Z,98457.66
2023-03-18T20:06:25.782Z,98461.16
2023-03-18T20:08:52.381Z,98464.72
2023-03-18T20:11:22.903Z,98465.63
2023-03-18T20:13:49.511Z,98466.47
2023-03-18T20:16:17.819Z,98470.88
2023-03-18T20:18:44.890Z,98464.66
2023-03-18T20:21:43.650Z,98461.94
2023-03-18T20:24:18.565Z,98461.00
2023-03-18T20:26:45.289Z,98462.81
2023-03-18T20:29:17.315Z,98461.88
2023-03-18T20:31:44.878Z,98461.97
2023-03-18T20:34:11.955Z,98462.88
2023-03-18T20:36:39.687Z,98468.28
2023-03-18T20:39:08.006Z,98470.06
2023-03-18T20:41:36.808Z,98463.06
2023-03-18T20:44:04.438Z,98458.69
2023-03-18T20:46:31.936Z,98464.00
2023-03-18T20:48:58.523Z,98461.34
2023-03-18T20:51:36.219Z,98462.22
2023-03-18T20:54:14.961Z,98465.72
2023-03-18T20:56:41.486Z,98465.69
2023-03-18T20:59:12.093Z,98466.47
2023-03-18T21:01:39.452Z,98465.56
2023-03-18T21:04:06.668Z,98469.09
2023-03-18T21:06:33.188Z,98471.78
2023-03-18T21:09:02.391Z,98477.06
2023-03-18T21:11:32.770Z,98471.78
2023-03-18T21:13:59.799Z,98470.00
2023-03-18T21:16:26.632Z,98470.91
2023-03-18T21:18:54.658Z,98474.44
2023-03-18T21:21:31.275Z,98477.03
2023-03-18T21:23:58.005Z,98467.31
2023-03-18T21:26:24.578Z,98464.63
2023-03-18T21:28:51.139Z,98468.13
2023-03-18T21:31:23.577Z,98470.75
2023-03-18T21:33:53.390Z,98462.69
2023-03-18T21:36:20.854Z,98454.00
2023-03-18T21:38:48.239Z,98467.38
2023-03-18T21:41:29.702Z,98457.56
2023-03-18T21:43:56.562Z,98458.38
2023-03-18T21:46:24.808Z,98460.13
2023-03-18T21:48:52.196Z,98449.56
2023-03-18T21:51:37.965Z,98456.59
2023-03-18T21:54:06.282Z,98452.13
2023-03-18T21:56:32.905Z,98454.75
2023-03-18T21:58:59.496Z,98453.84
2023-03-18T22:01:30.758Z,98453.00
2023-03-18T22:03:58.044Z,98454.69
2023-03-18T22:06:24.936Z,98452.16
2023-03-18T22:08:51.501Z,98461.16
2023-03-18T22:11:20.842Z,98485.19
2023-03-18T22:13:48.370Z,98497.56
2023-03-18T22:16:16.962Z,98516.06
2023-03-18T22:18:48.538Z,98492.25
2023-03-18T22:21:33.012Z,98495.66
2023-03-18T22:24:00.614Z,98494.88
2023-03-18T22:26:27.100Z,98501.25
2023-03-18T22:28:53.707Z,98511.03
2023-03-18T22:31:24.496Z,98514.47
2023-03-18T22:33:51.447Z,98505.59
2023-03-18T22:36:21.525Z,98510.84
2023-03-18T22:38:49.445Z,98512.56
2023-03-18T22:41:21.900Z,98501.81
2023-03-18T22:43:51.510Z,98485.00
2023-03-18T22:46:18.137Z,98464.66
2023-03-18T22:48:44.645Z,98473.53
2023-03-18T22:51:31.719Z,98479.72
2023-03-18T22:54:13.851Z,98480.63
2023-03-18T22:56:40.314Z,98493.00
2023-03-18T22:59:09.554Z,98487.69
2023-03-18T23:01:37.336Z,98487.69
2023-03-18T23:04:08.903Z,98496.53
2023-03-18T23:06:35.441Z,98495.63
2023-03-18T23:09:01.964Z,98489.47
2023-03-18T23:11:34.001Z,98501.88
2023-03-18T23:14:00.627Z,98524.94
2023-03-18T23:16:27.379Z,98517.91
2023-03-18T23:18:54.407Z,98520.56
2023-03-18T23:21:23.958Z,98531.13
2023-03-18T23:23:52.382Z,98540.94
2023-03-18T23:26:22.484Z,98541.88
2023-03-18T23:28:51.620Z,98526.94
2023-03-18T23:31:20.481Z,98520.75
2023-03-18T23:33:47.206Z,98505.78
2023-03-18T23:36:15.288Z,98513.69
2023-03-18T23:38:41.839Z,98509.38
2023-03-18T23:41:08.446Z,98515.53
2023-03-18T23:43:34.998Z,98526.97
2023-03-18T23:46:02.326Z,98505.88
2023-03-18T23:48:37.285Z,98499.75
2023-03-18T23:51:03.925Z,98511.25
2023-03-18T23:53:30.451Z,98513.00
2023-03-18T23:56:00.625Z,98524.44
2023-03-18T23:58:27.073Z,98499.69
